Accueil
METAR-TAF:

METAR-TAF

Aéroports :

Barkston Heath, Angleterre

latitude: 52-58N, longitude: 000-34W, altitude: 112 m

Observation

Le bulletin a été fait il y a 10 heures et 44 minutes, à 14:50 UTC
Vent 11 kt de ouest/sud-ouest
Température
Pression 1012 hPa
Visibilité 10 km ou plus
pas de nuages en-dessous de 1500 mètres et pas de cumulonimbus.

METAR: EGYE 161450Z 25011KT CAVOK ///// Q1012 BLU

Heure: 02:34 (01:34 UTC)

Prévision

Le bulletin a été fait il y a 12 heures et 7 minutes, à 13:27 UTC
Prévision valable du 16 à 15 UTC au 16 à 18 UTC
Vent 10 kt de ouest/sud-ouest
Visibilité 10 km ou plus
pas de nuages en-dessous de 1500 mètres et pas de cumulonimbus.

TAF: EGYE 161327Z 1615/1618 24010KT CAVOK

Observations et prévisions météorologiques de plus de 4000 aéroports (messages METAR et TAF).

Les stations disponibles sont représentées par des disques jaunes et rouges sur la carte.

Passer la souris dessus pour voir le nom de la station.

Cliquer dessus pour voir les observations et prévisions météorologiques.

Pour changer de carte: cliquez sur les boutons verts avec une croix noire pour zoomer, sur le bouton vert avec un tiret pour effectuer un zoom arrière, ou sur les flèches vertes pour les cartes adjacentes.


METAR-TAF: